createdAt,value
2022-10-09T00:03:34.120Z,87.20
2022-10-09T00:08:39.357Z,86.80
2022-10-09T00:13:43.987Z,86.80
2022-10-09T00:18:47.824Z,86.70
2022-10-09T00:23:52.249Z,87.20
2022-10-09T00:28:56.701Z,86.60
2022-10-09T00:33:59.716Z,86.40
2022-10-09T00:39:02.621Z,86.70
2022-10-09T00:44:38.764Z,87.30
2022-10-09T00:49:43.145Z,88.30
2022-10-09T00:54:46.213Z,88.90
2022-10-09T00:59:49.252Z,88.60
2022-10-09T01:04:53.515Z,88.30
2022-10-09T01:10:01.657Z,88.70
2022-10-09T01:15:12.972Z,89.30
2022-10-09T01:20:35.534Z,89.50
2022-10-09T01:25:53.825Z,89.60
2022-10-09T01:31:01.101Z,89.70
2022-10-09T01:36:05.460Z,90.10
2022-10-09T01:41:10.071Z,90.50
2022-10-09T01:46:23.424Z,90.30
2022-10-09T01:51:31.252Z,90.10
2022-10-09T01:56:37.594Z,90.30
2022-10-09T02:01:43.584Z,90.10
2022-10-09T02:06:48.711Z,89.40
2022-10-09T02:11:56.415Z,89.70
2022-10-09T02:17:07.179Z,89.90
2022-10-09T02:22:17.383Z,89.80
2022-10-09T02:27:22.023Z,90.70
2022-10-09T02:32:26.650Z,92.00
2022-10-09T02:37:29.574Z,92.50
2022-10-09T02:42:32.486Z,91.30
2022-10-09T02:47:36.757Z,90.80
2022-10-09T02:52:39.699Z,90.80
2022-10-09T02:57:42.725Z,90.90
2022-10-09T03:02:47.442Z,90.50
2022-10-09T03:07:53.136Z,90.20
2022-10-09T03:12:56.150Z,90.50
2022-10-09T03:18:00.486Z,91.10
2022-10-09T03:23:03.423Z,91.40
2022-10-09T03:28:06.426Z,90.90
2022-10-09T03:33:10.742Z,91.00
2022-10-09T03:38:13.776Z,91.60
2022-10-09T03:43:17.306Z,91.00
2022-10-09T03:48:21.937Z,90.80
2022-10-09T03:53:25.309Z,90.60
2022-10-09T03:58:28.084Z,90.60
2022-10-09T04:03:32.543Z,90.70
2022-10-09T04:08:36.759Z,90.80
2022-10-09T04:13:39.689Z,91.50
2022-10-09T04:18:45.535Z,91.30
2022-10-09T04:23:48.460Z,90.80
2022-10-09T04:28:51.461Z,90.90
2022-10-09T04:33:57.261Z,91.30
2022-10-09T04:39:00.217Z,91.40
2022-10-09T04:44:03.181Z,90.90
2022-10-09T04:49:07.477Z,91.60
2022-10-09T04:54:10.614Z,92.10
2022-10-09T04:59:13.672Z,92.00
2022-10-09T05:04:17.942Z,92.30
2022-10-09T05:09:20.886Z,92.30
2022-10-09T05:14:24.254Z,92.20
2022-10-09T05:19:29.264Z,92.90
2022-10-09T05:24:32.301Z,93.20
2022-10-09T05:29:35.205Z,93.20
2022-10-09T05:34:39.466Z,93.30
2022-10-09T05:39:42.407Z,93.00
2022-10-09T05:44:45.329Z,93.20
2022-10-09T05:49:49.599Z,93.20
2022-10-09T05:54:52.507Z,93.20
2022-10-09T05:59:55.484Z,92.80
2022-10-09T06:04:59.757Z,93.20
2022-10-09T06:10:02.699Z,93.70
2022-10-09T06:15:06.301Z,94.00
2022-10-09T06:20:11.038Z,94.40
2022-10-09T06:25:13.971Z,94.00
2022-10-09T06:30:16.993Z,95.10
2022-10-09T06:35:21.281Z,95.30
2022-10-09T06:40:24.229Z,95.50
2022-10-09T06:45:27.211Z,94.10
2022-10-09T06:50:31.555Z,93.40
2022-10-09T06:55:34.523Z,93.50
2022-10-09T07:00:37.502Z,93.50
2022-10-09T07:05:41.833Z,93.20
2022-10-09T07:10:44.786Z,93.50
2022-10-09T07:15:47.844Z,93.50
2022-10-09T07:20:52.259Z,93.90
2022-10-09T07:25:55.216Z,93.90
2022-10-09T07:30:58.269Z,93.90
2022-10-09T07:36:04.804Z,93.20
2022-10-09T07:41:10.074Z,93.40
2022-10-09T07:46:14.691Z,93.30
2022-10-09T07:51:21.195Z,92.60
2022-10-09T07:56:26.160Z,92.80
2022-10-09T08:01:30.457Z,93.10
2022-10-09T08:06:35.577Z,92.20
2022-10-09T08:11:40.648Z,92.90
2022-10-09T08:16:43.664Z,92.90
2022-10-09T08:21:47.987Z,92.10
2022-10-09T08:26:50.934Z,91.70
2022-10-09T08:31:54.457Z,91.90
2022-10-09T08:36:58.763Z,92.20
2022-10-09T08:42:03.391Z,91.40
2022-10-09T08:47:10.378Z,91.00
2022-10-09T08:52:37.775Z,91.60
2022-10-09T08:57:41.414Z,91.50
2022-10-09T09:03:08.858Z,90.00
2022-10-09T09:08:26.660Z,89.40
2022-10-09T09:13:46.414Z,88.90
2022-10-09T09:18:57.406Z,88.30
2022-10-09T09:24:04.042Z,87.70
2022-10-09T09:29:07.302Z,86.40
2022-10-09T09:34:15.689Z,86.10
2022-10-09T09:44:50.880Z,86.10
2022-10-09T09:49:55.973Z,85.60
2022-10-09T09:55:00.626Z,84.80
2022-10-09T10:00:21.494Z,83.40
2022-10-09T10:05:27.317Z,80.90
2022-10-09T10:10:36.444Z,79.30
2022-10-09T10:15:39.471Z,78.70
2022-10-09T10:20:45.813Z,75.50
2022-10-09T10:25:51.500Z,73.50
2022-10-09T10:30:58.824Z,71.50
2022-10-09T10:36:02.360Z,67.00
2022-10-09T10:41:15.533Z,66.80
2022-10-09T10:46:24.572Z,65.10
2022-10-09T10:51:53.854Z,66.70
2022-10-09T10:57:16.824Z,65.70
2022-10-09T11:02:48.868Z,62.30
2022-10-09T11:08:04.975Z,62.90
2022-10-09T11:13:14.998Z,60.50
2022-10-09T11:18:31.975Z,61.70
2022-10-09T11:23:48.517Z,60.50
2022-10-09T11:28:58.901Z,59.70
2022-10-09T11:34:06.688Z,61.00
2022-10-09T11:39:16.414Z,62.00
2022-10-09T11:44:36.657Z,64.60
2022-10-09T11:49:57.822Z,63.70
2022-10-09T11:55:08.858Z,63.30
2022-10-09T12:00:15.191Z,64.00
2022-10-09T12:05:28.930Z,64.00
2022-10-09T12:10:34.409Z,63.50
2022-10-09T12:15:46.890Z,64.30
2022-10-09T12:20:51.736Z,62.80
2022-10-09T12:25:55.881Z,63.70
2022-10-09T12:31:02.216Z,65.00
2022-10-09T12:36:12.592Z,63.40
2022-10-09T12:41:23.035Z,62.80
2022-10-09T12:46:34.194Z,63.00
2022-10-09T12:51:37.146Z,64.00
2022-10-09T12:56:40.701Z,63.20
2022-10-09T13:01:46.583Z,62.90
2022-10-09T13:06:51.485Z,63.40
2022-10-09T13:11:57.646Z,63.00
2022-10-09T13:17:02.353Z,65.40
2022-10-09T13:22:17.130Z,64.80
2022-10-09T13:27:20.893Z,64.40
2022-10-09T13:32:25.742Z,65.40
2022-10-09T13:37:28.704Z,66.10
2022-10-09T13:42:36.602Z,66.20
2022-10-09T13:47:40.955Z,66.80
2022-10-09T13:52:43.931Z,66.70
2022-10-09T13:57:48.322Z,68.40
2022-10-09T14:02:52.888Z,68.10
2022-10-09T14:07:56.193Z,67.40
2022-10-09T14:12:59.279Z,67.30
2022-10-09T14:18:03.556Z,68.20
2022-10-09T14:23:06.623Z,67.90
2022-10-09T14:28:09.614Z,67.40
2022-10-09T14:33:13.952Z,67.90
2022-10-09T14:38:16.906Z,66.70
2022-10-09T14:43:20.065Z,67.10
2022-10-09T14:48:24.497Z,67.60
2022-10-09T14:53:27.417Z,67.90
2022-10-09T14:58:31.381Z,67.30
2022-10-09T15:03:37.019Z,68.20
2022-10-09T15:08:42.048Z,69.80
2022-10-09T15:13:44.997Z,70.70
2022-10-09T15:18:50.916Z,71.30
2022-10-09T15:23:55.695Z,70.70
2022-10-09T15:28:58.662Z,70.70
2022-10-09T15:34:03.603Z,74.60
2022-10-09T15:39:07.886Z,71.80
2022-10-09T15:44:16.523Z,71.60
2022-10-09T15:49:20.824Z,72.70
2022-10-09T15:54:23.915Z,72.30
2022-10-09T15:59:26.928Z,72.50
2022-10-09T16:04:31.212Z,72.50
2022-10-09T16:09:34.282Z,71.40
2022-10-09T16:14:38.241Z,73.00
2022-10-09T16:19:42.568Z,72.50
2022-10-09T16:24:45.633Z,73.70
2022-10-09T16:29:48.598Z,73.70
2022-10-09T16:34:53.021Z,73.40
2022-10-09T16:39:55.958Z,73.60
2022-10-09T16:44:59.084Z,74.30
2022-10-09T16:50:03.336Z,75.00
2022-10-09T16:55:10.149Z,74.30
2022-10-09T17:00:18.156Z,74.70
2022-10-09T17:05:25.422Z,74.70
2022-10-09T17:10:28.620Z,75.10
2022-10-09T17:15:31.658Z,75.30
2022-10-09T17:20:38.607Z,75.70
2022-10-09T17:25:43.161Z,76.00
2022-10-09T17:30:46.291Z,76.40
2022-10-09T17:35:50.678Z,75.70
2022-10-09T17:40:53.944Z,76.60
2022-10-09T17:45:56.880Z,76.60
2022-10-09T17:51:12.212Z,74.50
2022-10-09T17:56:15.627Z,75.00
2022-10-09T18:01:18.975Z,76.80
2022-10-09T18:06:26.661Z,74.20
2022-10-09T18:11:30.161Z,73.10
2022-10-09T18:16:37.862Z,72.70
2022-10-09T18:21:44.230Z,73.60
2022-10-09T18:26:47.197Z,75.10
2022-10-09T18:31:50.570Z,75.30
2022-10-09T18:36:54.881Z,74.70
2022-10-09T18:41:58.318Z,72.80
2022-10-09T18:47:01.509Z,73.00
2022-10-09T18:52:06.411Z,72.70
2022-10-09T18:57:10.035Z,73.50
2022-10-09T19:02:13.050Z,73.10
2022-10-09T19:07:17.691Z,73.20
2022-10-09T19:12:21.049Z,74.10
2022-10-09T19:17:23.948Z,72.90
2022-10-09T19:22:28.326Z,71.50
2022-10-09T19:27:32.527Z,70.50
2022-10-09T19:32:35.722Z,70.50
2022-10-09T19:37:40.805Z,71.20
2022-10-09T19:42:43.712Z,71.00
2022-10-09T19:47:49.115Z,70.80
2022-10-09T19:52:57.265Z,70.10
2022-10-09T19:58:00.575Z,70.50
2022-10-09T20:03:04.918Z,70.80
2022-10-09T20:08:12.117Z,71.10
2022-10-09T20:13:15.159Z,70.80
2022-10-09T20:18:18.784Z,71.00
2022-10-09T20:23:24.073Z,71.10
2022-10-09T20:28:32.552Z,71.50
2022-10-09T20:33:38.948Z,71.60
2022-10-09T20:38:49.212Z,72.20
2022-10-09T20:43:53.025Z,71.50
2022-10-09T20:48:56.613Z,70.80
2022-10-09T20:54:07.002Z,70.70
2022-10-09T20:59:09.984Z,71.20
2022-10-09T21:04:12.928Z,71.50
2022-10-09T21:09:17.196Z,71.00
2022-10-09T21:14:20.776Z,71.70
2022-10-09T21:19:23.794Z,71.10
2022-10-09T21:24:29.249Z,71.50
2022-10-09T21:29:32.197Z,72.20
2022-10-09T21:34:36.254Z,71.50
2022-10-09T21:39:40.495Z,71.00
2022-10-09T21:44:43.394Z,71.50
2022-10-09T21:49:46.317Z,71.70
2022-10-09T21:54:50.581Z,70.90
2022-10-09T21:59:53.565Z,71.30
2022-10-09T22:04:57.330Z,71.20
2022-10-09T22:10:01.681Z,72.50
2022-10-09T22:15:05.255Z,72.80
2022-10-09T22:20:08.972Z,72.50
2022-10-09T22:25:13.280Z,71.10
2022-10-09T22:30:16.639Z,70.50
2022-10-09T22:35:19.679Z,70.10
2022-10-09T22:40:24.027Z,70.00
2022-10-09T22:45:26.978Z,70.00
2022-10-09T22:50:29.863Z,70.70
2022-10-09T22:55:33.924Z,70.90
2022-10-09T23:00:37.561Z,71.10
2022-10-09T23:05:40.497Z,71.60
2022-10-09T23:10:44.756Z,71.30
2022-10-09T23:15:47.655Z,71.50
2022-10-09T23:20:50.430Z,71.50
2022-10-09T23:25:55.085Z,70.00
2022-10-09T23:31:01.961Z,70.90
2022-10-09T23:36:06.007Z,71.40
2022-10-09T23:41:13.172Z,70.80
2022-10-09T23:46:18.072Z,71.60
2022-10-09T23:51:22.486Z,71.40
2022-10-09T23:56:28.728Z,72.80
